max min mittel Außentemperatur Tagesdurchschnitt Außenfeuchte Tagesdurchschnitt Taupunkt Tagesdurchschnitt Windchill Tagesdurchschnitt Windgeschwindigkeit Tagesdurchschnitt Gesamtregen Mindesttemperatur Höchsttemperatur Höchste Windgeschwindigkeit  Tägliche Niederschlagsmenge 
                         
                         
°C % °C °C km/h mm/m² °C °C km/h mm/m²
1.1.15 1036,5 1031,8 1034,2 1,0 94,8 0,2 0,7 1,6 6,6 0,1 6,6 18,3 6,6
2.1.15 1032,0 1025,0 1027,8 0,5 93,2 -0,5 -1,2 5,9 6,6 -0,6 1,6 40,3 0,0
3.1.15 1030,4 1015,4 1024,1 0,6 91,1 -0,6 -0,8 4,8 6,6 -0,1 1,5 36,0 0,0
4.1.15 1031,3 1016,5 1025,1 0,5 91,0 -0,8 -1,3 6,1 6,6 -0,4 1,3 31,3 0,0
5.1.15 1032,0 1028,5 1030,0 0,3 87,5 -1,5 -1,4 6,1 6,6 -1,5 3,2 32,0 0,0
6.1.15 1028,6 1024,4 1025,9 -1,0 88,3 -2,7 -1,2 1,9 6,6 -3,2 2,8 19,0 0,0
7.1.15 1029,8 1024,0 1027,0 -0,6 91,4 -1,8 -1,1 2,6 6,6 -2,6 0,4 16,5 0,0
8.1.15 1029,2 1019,9 1024,9 2,3 92,7 1,2 1,2 4,8 11,5 -0,1 5,3 37,8 4,9
9.1.15 1028,3 1015,0 1020,9 4,4 91,3 3,1 1,1 12,0 11,9 2,3 6,6 65,8 0,4
10.1.15 1014,9 1009,0 1011,5 9,2 89,7 7,5 6,5 12,5 17,7 4,1 12,2 60,8 5,8
11.1.15 1019,9 1012,2 1015,1 1,2 83,5 -1,3 -2,3 10,3 17,7 0,1 4,1 45,7 0,0
12.1.15 1021,7 1018,6 1020,1 2,6 86,6 0,5 0,8 6,7 19,4 1,0 4,2 41,4 1,7
13.1.15 1019,6 1011,4 1015,0 7,9 59,0 0,0 6,3 7,0 19,4 4,3 11,9 38,8 0,0
14.1.15 1017,9 1010,7 1012,8 4,8 79,8 1,5 3,7 5,3 23,6 0,8 9,5 42,8 4,2
15.1.15 1018,4 1007,8 1012,7 1,9 86,0 -0,2 -0,3 7,5 23,6 -1,1 4,5 34,5 0,0
16.1.15 1010,8 1007,4 1008,9 4,3 76,6 0,5 3,8 3,5 23,6 1,2 7,8 20,1 0,0
17.1.15 1017,7 1007,6 1013,0 1,8 91,6 0,5 1,7 0,9 29,2 1,0 3,3 12,6 5,6
18.1.15 1018,4 1015,9 1017,3 -0,5 90,3 -1,8 -0,6 0,8 29,2 -3,2 2,9 19,0 0,0
19.1.15 1016,3 1011,4 1013,1 0,1 88,7 -1,5 0,0 1,2 29,2 -3,2 1,9 20,8 0,0
20.1.15 1012,7 1009,9 1010,9 0,0 89,8 -1,4 0,0 0,8 30,1 -0,9 0,9 6,4 0,9
21.1.15 1014,2 1012,6 1013,3 -1,0 87,4 -2,8 -1,7 2,7 30,5 -3,7 2,6 28,8 0,4
22.1.15 1017,4 1011,9 1014,0 -0,6 91,5 -1,8 -1,2 3,5 30,5 -1,4 0,5 25,5 0,0
23.1.15 1023,9 1017,4 1020,9 -2,0 94,2 -2,8 -2,3 1,6 30,5 -2,5 -1,4 21,6 0,0
24.1.15 1023,8 1017,7 1020,5 -2,1 91,7 -3,2 -2,6 2,5 30,5 -3,2 -0,9 27,7 0,0
25.1.15 1026,6 1021,6 1025,3 0,1 91,2 -1,1 -0,2 2,0 31,6 -1,1 1,8 14,7 1,1
26.1.15 1026,1 1015,5 1022,0 0,0 93,1 -0,9 -0,2 1,3 33,9 -0,6 1,3 12,9 2,3
27.1.15 1019,4 1014,8 1017,0 0,1 92,1 -1,0 -0,8 4,6 35,5 -1,1 1,5 22,6 1,6
28.1.15 1019,6 998,9 1012,7 0,4 91,2 -0,8 -0,9 5,0 37,2 -1,1 1,3 33,8 1,7
29.1.15 999,0 981,0 993,4 -0,1 88,6 -1,7 -1,4 4,9 37,2 -1,6 0,9 22,3 0,0
30.1.15 980,8 974,3 978,2 -0,9 92,8 -1,9 -1,4 2,7 37,2 -2,8 0,3 27,3 0,0
31.1.15 989,4 980,5 984,3 -2,3 91,8 -3,4 -2,5 1,5 37,2 -5,8 -0,2 30,6 0,0
1.2.15 996,2 988,6 991,9 -1,2 90,3 -2,5 -1,3 1,1 37,2 -3,2 2,9 16,5 0,0
2.2.15 1000,7 995,8 998,6 -0,6 88,1 -2,3 -1,0 2,2 38,7 -2,2 2,7 26,2 1,5
3.2.15 1006,2 1000,4 1003,0 -1,5 87,1 -3,3 -1,8 1,8 39,1 -6,2 3,5 23,0 0,4
4.2.15 1016,2 1005,9 1010,5 -3,6 85,4 -5,7 -3,7 0,4 39,1 -7,5 4,4 14,7 0,0
5.2.15 1021,9 1016,2 1018,5 -4,8 81,7 -7,5 -5,2 2,1 39,1 -9,8 1,3 21,6 0,0
6.2.15 1027,1 1021,5 1023,7 -3,6 79,6 -6,7 -4,9 4,9 39,1 -6,1 3,0 34,3 0,0
7.2.15 1028,6 1021,2 1026,4 -2,8 76,3 -6,6 -3,1 1,7 41,3 -7,4 7,3 14,7 2,2
8.2.15 1026,3 1016,8 1021,1 -1,4 77,8 -4,9 -2,3 4,0 41,3 -6,4 4,1 29,5 0,0
9.2.15 1026,2 1021,7 1023,6 -0,9 88,1 -2,7 -2,6 6,0 45,8 -7,9 2,9 35,8 4,5
10.2.15 1029,5 1025,6 1027,7 1,6 92,4 0,4 1,5 1,8 53,9 0,5 3,3 18,3 8,1
11.2.15 1029,1 1025,3 1027,1 0,3 90,0 -1,1 0,2 1,1 54,8 -2,4 3,2 14,0 0,9
12.2.15 1025,4 1023,0 1024,0 -2,1 91,4 -3,3 -2,8 4,5 54,8 -3,4 -0,1 19,4 0,0
13.2.15 1023,6 1017,1 1020,6 -2,2 89,7 -3,6 -3,1 4,4 54,8 -3,9 2,9 26,2 0,0
14.2.15 1017,3 1012,8 1014,4 -2,2 89,3 -3,7 -3,3 4,9 54,8 -4,1 3,1 31,3 0,0
15.2.15 1017,6 1013,1 1014,7 -0,4 88,4 -2,1 -2,9 7,5 55,3 -3,3 1,8 32,0 0,5
16.2.15 1022,3 1017,6 1020,1 2,2 82,2 -0,6 1,5 3,4 55,3 0,3 7,8 25,9 0,0
17.2.15 1037,2 1022,3 1029,0 1,4 82,1 -1,4 0,6 3,4 55,3 -2,5 8,9 21,9 0,0
18.2.15 1039,8 1035,9 1038,0 0,6 83,9 -1,8 0,6 0,4 55,3 -1,6 2,9 16,9 0,0
19.2.15 1035,9 1025,0 1030,6 -1,3 84,9 -3,6 -1,8 3,4 55,3 -3,3 4,4 25,4 0,0
20.2.15 1024,9 1008,9 1018,1 2,0 77,4 -1,7 1,6 3,4 55,3 -3,1 10,9 29,1 0,0
21.2.15 1008,6 1000,1 1002,9 3,0 74,3 -1,2 2,0 4,4 55,3 -1,9 10,3 29,8 0,0
22.2.15 1012,4 1004,5 1009,3 1,5 81,5 -1,4 1,5 0,2 55,3 -2,9 11,0 10,0 0,0
23.2.15 1011,5 1000,0 1003,7 -0,4 87,7 -2,2 -1,2 3,5 56,1 -4,4 2,6 25,2 0,8
24.2.15 1015,9 1002,6 1008,3 2,3 84,5 -0,1 2,0 2,0 56,1 -1,8 4,8 22,6 0,0
25.2.15 1022,0 1015,4 1018,7 0,1 85,4 -2,0 -0,1 1,1 56,1 -3,6 4,1 18,0 0,0
26.2.15 1023,0 1016,3 1021,0 -0,5 76,3 -4,5 -0,9 2,1 56,2 -6,5 9,1 17,2 0,1
27.2.15 1017,5 1011,7 1013,6 1,4 70,8 -3,8 1,3 1,2 56,2 -4,8 11,8 14,4 0,0
28.2.15 1021,4 1017,6 1019,5 2,0 78,3 -1,5 1,8 1,1 56,5 -0,9 7,5 21,6 0,3
1.3.15 1016,6 1006,5 1010,1 2,2 86,8 0,2 1,0 4,9 56,5 -0,9 5,9 26,2 0,0
2.3.15 1012,6 1000,9 1005,8 4,3 81,4 1,2 2,9 5,0 60,9 0,6 8,1 41,0 4,4
3.3.15 1021,0 1012,9 1018,4 2,6 74,3 -1,7 1,0 6,1 61,5 -0,7 7,5 36,0 0,6
4.3.15 1027,2 1016,8 1022,7 2,1 78,1 -1,3 1,2 4,1 63,1 -0,2 6,9 40,3 1,6
5.3.15 1035,4 1026,9 1031,5 2,3 78,0 -1,3 1,8 2,8 64,5 0,1 8,4 27,0 1,4
6.3.15 1036,4 1034,3 1035,3 2,1 81,9 -0,7 1,9 1,3 64,5 -0,5 4,9 21,6 0,0
7.3.15 1035,9 1031,0 1033,3 4,1 71,5 -1,1 3,9 1,6 64,5 -2,2 11,5 29,1 0,0
8.3.15 1031,4 1025,3 1028,2 5,4 68,1 -0,6 5,3 1,7 64,5 -1,6 14,2 16,9 0,0
9.3.15 1029,0 1024,9 1026,6 5,8 72,9 0,9 5,7 0,9 64,5 -1,5 16,8 15,8 0,0
10.3.15 1027,2 1024,9 1026,0 6,7 72,0 1,3 6,7 0,7 65,6 -2,2 20,1 16,5 1,1
11.3.15 1028,6 1026,1 1027,4 3,7 77,1 -0,1 3,5 1,6 68,0 0,7 9,1 27,3 2,4
12.3.15 1030,6 1028,3 1029,3 2,6 85,7 0,4 2,5 0,9 69,4 1,1 4,9 16,2 1,4
13.3.15 1028,4 1024,1 1025,2 0,9 87,6 -0,9 0,7 2,0 69,4 0,3 2,2 27,7 0,0
14.3.15 1026,3 1023,4 1024,6 1,3 90,3 -0,1 1,2 1,4 69,7 -0,1 3,1 18,3 0,3
15.3.15 1026,8 1024,7 1025,8 2,2 89,1 0,5 0,6 5,3 72,1 0,6 4,2 33,6 2,4
16.3.15 1026,8 1024,7 1025,7 6,6 73,3 1,9 3,6 10,2 72,1 2,9 11,9 37,8 0,0
17.3.15 1028,1 1025,8 1026,8 8,8 66,6 2,5 6,8 7,6 72,1 4,6 14,9 33,8 0,0
18.3.15 1026,7 1024,7 1025,7 8,4 59,9 0,5 8,2 2,2 72,1 1,0 14,9 23,4 0,0
19.3.15 1026,6 1024,2 1025,5 7,0 63,6 -0,3 6,9 0,9 72,1 -2,2 17,9 16,2 0,0
20.3.15 1026,0 1019,8 1023,5 5,1 62,2 -2,5 5,1 0,5 72,1 -3,6 15,6 15,1 0,0
21.3.15 1019,9 1014,3 1016,1 3,2 71,9 -1,6 2,8 1,9 72,1 -4,1 12,8 31,6 0,0
22.3.15 1024,7 1017,6 1022,3 1,3 87,7 -0,5 0,8 2,6 72,6 -1,9 2,9 18,7 0,5
23.3.15 1023,6 1013,9 1018,4 3,0 74,4 -1,6 2,9 1,2 72,6 -3,9 12,1 14,7 0,0
24.3.15 1014,0 1009,3 1010,8 4,8 75,6 0,6 4,5 2,1 72,6 -1,5 12,6 28,4 0,0
25.3.15 1010,2 1004,2 1007,4 8,0 67,2 1,4 7,1 4,7 72,6 -1,5 17,8 34,5 0,0
26.3.15 1010,8 1004,1 1007,8 7,0 83,9 4,4 6,7 1,9 73,6 4,8 9,6 21,9 1,0
27.3.15 1021,4 1010,5 1015,3 5,0 80,1 1,7 3,7 5,5 75,3 3,0 9,4 36,7 1,7
28.3.15 1023,0 1015,2 1020,1 6,6 63,8 -0,2 5,9 3,6 75,9 3,1 11,2 33,8 0,6
29.3.15 1007,6 994,1 999,3 7,0 90,1 5,4 4,6 8,8 89,1 4,6 8,9 33,4 13,2
30.3.15 1011,2 994,1 1001,4 5,5 77,4 1,7 2,0 13,7 96,3 0,7 9,5 61,2 7,2
31.3.15 1011,4 994,0 1001,3 5,4 78,5 1,9 1,4 18,8 100,5 0,4 11,1 97,9 4,2
1.4.15 1016,4 1006,1 1011,5 2,4 76,0 -1,5 -3,3 15,9 100,5 0,1 7,3 55,0 0,0
2.4.15 1018,6 1006,1 1011,8 1,2 88,8 -0,5 -0,1 5,5 115,5 -1,2 4,6 39,9 15,0
3.4.15 1021,6 1017,2 1019,6 2,2 76,9 -1,7 1,2 4,2 116,5 -1,1 7,8 19,5 1,0
4.4.15 1017,7 1014,7 1015,8 1,5 71,4 -3,6 1,3 1,2 116,5 -3,8 8,1 23,0 0,0
5.4.15 1024,2 1018,0 1021,4 2,3 71,0 -2,8 2,2 1,1 116,5 -2,3 10,2 24,1 0,0
6.4.15 1031,5 1023,0 1025,8 1,7 74,5 -2,5 1,4 1,7 116,5 -3,2 8,9 35,6 0,0
7.4.15 1036,1 1031,2 1033,5 4,2 65,2 -2,5 3,8 2,2 116,5 -5,1 13,5 29,5 0,0
8.4.15 1032,5 1030,0 1031,3 6,2 72,6 1,6 6,0 1,4 116,5 0,3 13,2 25,4 0,0
9.4.15 1032,5 1026,8 1029,9 7,8 77,7 3,9 7,5 1,8 116,5 4,1 14,4 19,0 0,0
10.4.15 1027,2 1021,4 1024,3 10,9 66,1 3,6 10,9 0,7 116,5 0,2 22,3 18,7 0,0
11.4.15 1025,4 1020,2 1021,9 10,5 68,1 4,3 10,1 2,7 116,5 3,4 18,3 33,4 0,0
12.4.15 1031,1 1025,5 1028,6 11,5 66,4 5,0 10,8 3,7 116,5 5,8 16,3 34,9 0,0
13.4.15 1030,0 1024,7 1027,5 9,2 66,5 2,9 8,8 2,5 116,5 2,8 14,4 34,5 0,0
14.4.15 1030,3 1024,1 1027,9 7,6 63,6 0,4 7,1 2,9 116,5 -1,8 16,9 21,6 0,0
15.4.15 1024,1 1016,3 1020,5 14,7 57,5 5,1 14,2 3,8 116,5 5,2 22,8 38,8 0,0
16.4.15 1016,3 1013,8 1015,0 13,0 63,3 5,4 12,6 3,4 116,5 3,8 23,1 43,2 0,0
17.4.15 1019,1 1013,4 1015,3 8,5 63,5 1,6 8,1 2,6 116,5 3,3 14,8 29,1 0,0
18.4.15 1025,8 1019,1 1023,3 4,1 66,8 -2,0 4,0 1,5 116,5 -1,1 11,4 22,3 0,0
19.4.15 1024,9 1022,0 1023,2 6,9 57,4 -2,0 6,7 1,4 116,5 -3,4 17,2 20,8 0,0
20.4.15 1026,8 1023,8 1025,1 8,9 58,7 0,4 8,8 1,7 116,5 -1,4 17,8 28,8 0,0
21.4.15 1029,1 1026,4 1027,7 12,0 52,0 0,6 11,8 2,0 116,5 -0,2 22,6 25,5 0,0
22.4.15 1027,8 1023,3 1025,5 4,9 71,4 0,0 4,8 0,9 116,7 -0,1 10,6 17,6 0,2
23.4.15 1023,4 1017,4 1020,2 8,6 71,3 2,9 8,5 0,8 116,7 1,5 16,8 13,6 0,0
24.4.15 1018,2 1014,5 1016,5 10,8 61,0 2,5 10,6 2,1 116,7 0,3 20,4 28,6 0,0
25.4.15 1015,2 1011,1 1012,8 11,0 66,4 4,4 10,6 2,6 116,7 2,5 18,9 27,7 0,0
26.4.15 1012,1 1007,9 1010,5 14,2 75,4 9,6 14,1 1,4 116,7 10,7 20,3 23,0 0,0
27.4.15 1008,2 1003,8 1005,1 13,3 76,8 8,8 13,1 1,8 122,5 6,9 25,4 32,7 5,8
28.4.15 1020,7 1006,0 1012,0 5,7 84,8 3,1 5,3 2,3 133,3 1,8 11,4 21,6 10,8
29.4.15 1022,4 1017,6 1020,5 7,7 60,9 -0,5 7,6 1,3 133,3 -1,3 16,1 18,3 0,0
30.4.15 1018,0 1012,8 1015,9 9,1 63,8 2,2 8,7 2,9 134,6 2,3 16,5 32,4 1,3
1.5.15 1013,4 1007,4 1009,7 9,3 73,6 4,4 9,3 0,7 137,0 5,2 13,3 11,1 2,4
2.5.15 1014,0 1007,9 1012,0 10,6 59,9 2,4 10,5 0,9 137,0 2,5 17,5 22,6 0,0
3.5.15 1013,8 1008,4 1010,8 9,5 83,4 6,8 9,1 2,7 144,2 3,6 13,9 29,5 7,2
4.5.15 1014,3 1009,0 1012,1 16,8 73,8 11,4 16,6 2,2 144,2 12,8 22,8 29,1 0,0
5.5.15 1013,5 1007,6 1009,7 17,9 71,6 12,3 17,6 3,6 144,4 13,9 25,2 36,7 0,2
6.5.15 1018,0 1013,2 1015,7 15,2 65,2 8,0 14,7 3,5 144,4 10,7 19,1 38,2 0,0
7.5.15 1021,7 1018,1 1019,9 11,8 60,5 3,7 11,1 4,1 144,4 5,6 17,3 36,0 0,0
8.5.15 1021,5 1016,0 1018,5 12,5 59,4 3,9 12,3 2,0 144,4 2,9 21,2 19,0 0,0
9.5.15 1022,4 1016,9 1019,4 15,5 63,8 8,5 15,2 2,7 144,4 11,3 20,5 33,8 0,0
10.5.15 1029,1 1022,5 1026,0 13,3 64,7 5,9 12,4 4,5 148,5 8,3 20,3 35,6 4,1
11.5.15 1029,6 1024,9 1027,6 13,6 58,1 4,7 13,3 3,3 148,5 3,1 21,9 26,2 0,0
12.5.15 1025,4 1017,2 1021,5 18,5 55,3 8,7 18,3 3,7 154,4 9,6 26,8 29,5 5,9
13.5.15 1023,3 1013,1 1020,1 15,1 58,5 5,6 14,8 2,6 154,4 7,8 21,1 25,2 0,0
14.5.15 1015,2 1012,4 1013,8 13,1 60,0 5,2 13,1 1,3 154,4 7,9 19,4 20,5 0,0
15.5.15 1020,7 1012,9 1015,7 12,6 57,4 3,6 12,6 1,1 154,4 5,6 20,9 20,8 0,0
16.5.15 1024,9 1020,7 1022,4 12,3 58,6 3,5 11,7 4,3 154,4 1,8 21,2 33,1 0,0
17.5.15 1026,7 1023,0 1024,7 13,2 55,0 3,5 12,6 4,3 154,4 8,2 19,5 33,8 0,0
18.5.15 1023,1 1008,8 1015,9 13,8 55,6 4,2 13,3 3,6 154,4 3,1 22,6 30,2 0,0
19.5.15 1013,0 1008,1 1010,0 13,4 62,5 6,0 12,8 3,5 154,4 6,9 18,6 36,3 0,0
20.5.15 1018,8 1012,7 1014,9 10,4 66,7 4,2 10,2 1,5 154,4 7,5 14,1 31,3 0,0
21.5.15 1027,3 1018,9 1023,0 10,4 69,0 4,2 10,3 0,8 154,4 4,3 18,6 23,0 0,0
22.5.15 1027,7 1023,6 1026,2 11,7 57,0 2,3 11,6 1,7 154,4 1,1 19,9 20,5 0,0
23.5.15 1024,3 1019,1 1021,1 12,2 61,0 4,3 12,1 1,6 154,4 2,4 19,2 27,3 0,0
24.5.15 1021,5 1019,2 1020,3 14,4 72,7 9,3 14,4 1,0 154,4 10,9 21,8 15,8 0,0
25.5.15 1019,5 1013,9 1016,4 12,8 80,7 9,5 12,8 0,5 155,7 10,1 17,3 19,4 1,3
26.5.15 1021,2 1014,2 1017,3 10,9 73,6 6,0 10,9 0,9 156,8 7,8 15,5 20,5 1,1
27.5.15 1023,5 1021,1 1022,6 9,4 67,6 3,5 9,3 1,1 156,8 7,1 12,6 22,6 0,0
28.5.15 1022,4 1015,3 1018,8 12,9 59,4 4,6 12,5 3,3 156,8 5,9 19,4 36,3 0,0
29.5.15 1016,2 1011,6 1014,4 14,4 67,0 7,9 14,1 2,8 157,4 8,1 19,6 38,8 0,6
30.5.15 1019,6 1011,7 1014,7 12,5 66,6 6,0 11,6 5,2 158,3 8,4 17,1 38,1 0,9
31.5.15 1019,8 1016,2 1018,3 13,1 61,2 5,2 12,8 2,8 158,3 4,1 20,5 30,2 0,0
1.6.15 1020,1 1016,0 1017,6 16,0 69,7 10,3 15,7 3,1 158,7 10,8 22,0 31,6 0,4
2.6.15 1020,0 1018,4 1019,2 15,5 73,5 10,0 14,2 5,2 158,7 10,6 23,8 41,4 0,0
3.6.15 1027,2 1019,8 1022,5 21,6 50,2 10,4 20,9 6,7 158,7 13,2 27,1 41,7 0,0
4.6.15 1029,8 1027,2 1028,5 18,1 55,1 8,2 18,1 1,6 158,7 8,5 26,9 24,1 0,0
5.6.15 1027,6 1023,4 1025,7 21,1 50,0 9,6 20,9 4,1 158,7 12,6 29,6 30,6 0,0
6.6.15 1027,4 1022,7 1024,7 25,0 48,2 12,6 24,9 3,1 158,7 15,9 33,4 27,8 0,0
7.6.15 1029,3 1027,0 1028,4 18,2 79,0 14,3 18,1 1,4 165,6 14,9 23,4 19,8 6,9
8.6.15 1028,1 1024,4 1026,3 12,8 84,2 10,1 12,6 2,2 188,2 10,8 17,8 28,0 22,6
9.6.15 1027,7 1024,5 1026,0 10,4 88,5 8,5 9,6 4,5 196,9 9,3 12,3 29,5 8,7
10.6.15 1027,8 1024,8 1026,3 14,2 77,2 10,0 13,9 2,1 196,9 9,9 19,1 21,6 0,0
11.6.15 1025,8 1019,9 1023,0 15,2 75,0 10,6 15,0 1,6 196,9 12,1 20,8 23,7 0,0
12.6.15 1019,9 1014,5 1016,5 21,1 64,9 13,3 21,1 1,8 196,9 12,1 29,8 23,4 0,0
13.6.15 1014,8 1012,8 1013,6 20,8 70,4 14,9 20,6 2,6 198,2 13,7 28,3 19,8 1,3
14.6.15 1015,0 1011,8 1013,8 20,6 62,3 12,0 20,5 1,6 198,2 11,1 28,5 26,2 0,0
15.6.15 1021,4 1013,1 1017,3 14,7 77,8 10,8 14,5 2,2 198,2 11,9 18,6 22,6 0,0
16.6.15 1024,3 1021,4 1022,6 13,2 64,8 5,8 13,1 1,4 198,2 4,4 21,1 23,7 0,0
17.6.15 1025,8 1021,6 1024,3 14,0 56,2 4,5 14,0 0,8 198,2 3,8 21,9 20,8 0,0
18.6.15 1021,5 1014,7 1017,4 13,3 80,9 9,9 13,2 1,2 209,7 11,1 16,7 21,2 11,5
19.6.15 1018,4 1015,6 1017,2 11,7 79,1 8,0 11,5 2,1 211,6 8,8 15,5 32,0 1,9
20.6.15 1020,9 1017,6 1018,8 11,0 79,7 7,4 10,7 2,1 217,1 8,1 15,1 29,5 5,5
21.6.15 1021,2 1016,8 1019,2 11,0 79,3 7,4 10,8 1,9 217,1 6,5 15,2 26,6 0,0
22.6.15 1016,7 1009,1 1013,4 12,3 85,9 10,0 11,7 3,3 227,6 9,6 16,3 30,2 10,5
23.6.15 1017,3 1006,2 1011,3 10,2 84,5 7,6 9,2 4,8 238,5 8,5 13,4 30,6 10,9
24.6.15 1024,9 1017,2 1021,7 12,3 78,6 8,4 12,0 2,8 239,0 7,9 18,9 26,2 0,5
25.6.15 1025,5 1024,2 1024,9 15,2 64,0 7,4 15,1 0,9 239,0 4,3 23,4 19,8 0,0
26.6.15 1025,0 1020,9 1023,2 17,5 64,8 10,2 17,3 2,3 239,0 8,8 25,5 32,7 0,0
27.6.15 1021,0 1018,4 1019,5 17,1 80,2 13,6 16,9 1,3 241,6 14,6 19,9 28,8 2,6
28.6.15 1025,0 1020,9 1023,4 18,0 64,5 10,2 18,0 1,1 241,6 11,3 24,4 23,4 0,0
29.6.15 1024,7 1023,1 1023,9 19,4 61,3 10,9 19,3 1,5 242,2 12,5 27,2 26,2 0,6
30.6.15 1025,4 1023,5 1024,4 20,9 60,2 11,9 20,8 0,7 242,2 11,2 29,2 18,3 0,0
1.7.15 1021,1 1019,5 1020,3 22,0 56,0 11,7 21,9 2,3 242,2 11,4 30,9 20,5 0,0
2.7.15 1025,2 1021,0 1022,3 24,6 52,0 13,4 24,4 3,5 242,2 16,3 31,8 19,4 0,0
3.7.15 1026,9 1023,9 1025,8 26,7 47,5 13,9 26,6 2,8 242,2 18,3 34,4 24,1 0,0
4.7.15 1024,2 1012,1 1018,9 28,1 51,1 16,0 28,1 1,6 256,6 18,1 36,8 19,0 0,0
5.7.15 1016,2 1011,0 1012,8 28,3 53,4 17,1 28,2 2,3 266,8 19,4 38,1 28,4 0,0
6.7.15 1017,2 1013,9 1015,8 22,4 66,2 14,8 22,2 2,1 275,0 17,8 27,8 16,2 14,4
7.7.15 1020,6 1014,6 1018,0 23,6 57,5 13,6 23,5 2,9 275,0 11,9 34,4 27,3 0,0
8.7.15 1016,2 1008,4 1010,8 18,7 67,9 11,9 17,8 6,1 275,0 16,3 21,6 47,5 10,2
9.7.15 1010,8 1005,4 1007,9 15,0 67,8 8,7 14,5 3,2 275,0 11,5 18,8 18,0 8,2
10.7.15 1013,0 1009,9 1011,0 14,5 58,5 5,4 14,4 1,2 278,4 4,7 22,4 19,0 0,0
11.7.15 1015,4 1013,1 1014,2 17,9 55,5 7,7 17,8 1,8 278,4 6,6 27,9 20,8 0,0
12.7.15 1014,9 1013,6 1014,4 19,6 59,0 10,4 19,4 3,1 278,9 10,1 28,4 35,6 0,0
13.7.15 1014,8 1012,4 1013,4 15,6 82,5 12,5 15,4 2,2 278,9 12,5 20,2 28,8 3,4
14.7.15 1019,7 1012,9 1015,6 17,4 84,5 14,6 16,8 4,7 278,9 14,8 22,8 38,8 0,0
15.7.15 1024,0 1019,7 1022,4 19,3 75,0 14,4 19,3 0,8 278,9 15,9 26,2 21,6 0,5
16.7.15 1025,0 1023,7 1024,4 23,2 60,7 14,3 23,1 1,3 279,3 14,6 30,9 26,6 0,0
17.7.15 1025,2 1023,3 1024,4 25,5 56,2 14,7 25,5 1,8 279,3 15,6 34,5 20,5 0,0
18.7.15 1024,6 1021,3 1023,2 24,1 56,9 14,6 23,9 3,7 292,7 17,7 31,3 33,8 0,0
19.7.15 1022,0 1017,2 1019,8 19,3 75,0 14,4 19,3 0,8 292,7 15,9 26,2 21,6 0,0
20.7.15 1017,4 1012,6 1014,9 20,0 76,3 15,5 19,8 2,2 292,7 15,9 24,8 27,0 0,4
21.7.15 1014,6 1012,2 1013,4 24,0 64,8 16,3 23,8 3,8 296,6 17,8 30,5 33,1 0,0
22.7.15 1019,9 1014,1 1016,7 22,6 68,0 15,7 22,3 3,8 298,0 15,5 35,4 36,0 13,4
23.7.15 1020,8 1018,2 1019,7 21,4 69,3 15,0 21,3 2,0 298,0 17,4 26,8 27,7 0,0
24.7.15 1018,6 1016,3 1017,0 21,7 64,7 14,3 21,5 3,7 298,0 13,9 27,6 27,0 0,0
25.7.15 1017,3 1015,8 1016,5 20,6 62,8 12,7 19,6 7,8 299,0 14,9 25,5 53,6 3,9
26.7.15 1017,3 1015,4 1016,1 15,8 55,0 5,8 14,9 5,5 299,4 10,3 23,3 30,9 0,0
27.7.15 1018,6 1016,4 1017,2 16,1 69,1 10,3 15,6 4,5 299,9 13,3 20,4 38,1 1,4
28.7.15 1018,2 1013,1 1015,6 16,4 62,2 8,8 15,6 5,8 299,9 12,0 20,6 42,4 1,9
29.7.15 1013,2 1010,0 1011,5 14,5 65,1 7,9 14,1 3,7 299,9 11,4 20,4 34,9 0,0
30.7.15 1019,1 1014,1 1016,7 14,0 60,2 5,4 13,2 5,1 299,9 5,6 20,8 37,8 0,0
31.7.15 1021,8 1019,3 1020,5 15,1 58,6 6,3 15,0 0,7 299,9 7,1 22,6 9,0 0,0
1.8.15 1020,0 1017,5 1018,5 17,1 57,4 7,9 16,8 2,8 299,9 8,5 24,8 19,0 0,0
2.8.15 1023,4 1019,3 1021,5 21,2 54,4 10,7 21,2 1,2 299,9 12,9 29,9 14,4 0,0
3.8.15 1023,4 1020,8 1022,1 21,8 59,1 12,7 21,7 2,4 299,9 12,1 29,6 16,9 0,0
4.8.15 1021,0 1017,0 1018,6 23,1 57,3 13,2 22,9 4,5 299,9 13,5 32,9 39,6 0,0
5.8.15 1023,0 1020,5 1021,8 22,8 58,1 13,0 22,8 1,4 299,9 15,8 31,1 28,0 0,0
6.8.15 1021,4 1019,5 1020,5 25,7 52,0 13,4 25,6 1,8 299,9 14,5 36,6 31,6 0,0
7.8.15 1021,7 1020,0 1021,0 28,2 42,3 12,9 28,2 3,2 299,9 19,7 36,8 29,1 0,0
8.8.15 1024,4 1019,5 1021,9 27,1 48,5 14,7 27,0 2,5 299,9 19,9 33,9 25,5 0,0
9.8.15 1024,5 1020,8 1022,7 24,0 64,7 16,5 23,9 2,7 299,9 18,4 30,7 23,7 0,0
10.8.15 1021,5 1017,3 1018,7 25,8 52,8 13,4 25,8 3,0 299,9 16,2 33,8 35,8 0,0
11.8.15 1022,3 1016,8 1019,2 25,2 52,3 14,1 25,2 1,5 299,9 16,1 36,0 22,6 0,0
12.8.15 1024,6 1022,0 1023,2 24,3 64,9 16,7 24,3 1,1 299,9 17,6 32,1 21,9 0,0
13.8.15 1024,4 1017,3 1020,9 25,5 58,6 15,7 25,4 3,5 299,9 16,0 34,0 30,2 0,0
14.8.15 1017,4 1012,0 1014,3 26,8 52,2 15,7 26,6 3,7 304,6 19,8 34,6 25,5 4,7
15.8.15 1014,8 1011,8 1013,6 22,0 69,8 15,6 22,0 1,1 308,5 16,5 28,4 20,5 3,9
16.8.15 1015,4 1012,7 1013,6 18,2 89,3 16,4 18,2 1,0 338,4 16,6 20,6 13,6 29,9
17.8.15 1015,0 1012,6 1013,6 15,0 92,3 13,7 14,8 2,4 347,9 13,1 16,6 20,5 9,5
18.8.15 1020,0 1014,8 1016,9 14,2 87,5 12,1 14,0 1,6 348,8 12,6 17,2 20,8 0,9
19.8.15 1024,2 1019,9 1021,8 13,8 87,4 11,6 13,7 1,0 348,8 10,9 18,8 18,0 0,0
20.8.15 1027,6 1023,9 1025,6 15,2 86,3 12,9 15,2 0,2 348,8 13,4 18,2 16,3 0,0
21.8.15 1027,9 1026,0 1027,1 17,0 71,1 10,6 17,0 0,6 348,8 10,2 24,6 15,8 0,0
22.8.15 1026,7 1020,8 1023,8 17,0 60,2 7,9 16,9 1,0 348,8 6,9 26,9 18,0 0,0
23.8.15 1021,0 1011,7 1016,0 17,6 57,0 8,5 17,2 3,3 348,8 9,0 23,5 35,8 0,0
24.8.15 1013,8 1010,4 1011,7 19,9 72,5 14,4 19,7 3,3 357,9 14,9 26,8 30,6 9,1
25.8.15 1021,9 1013,8 1018,4 14,9 75,9 10,5 14,6 2,8 373,6 11,0 18,9 27,7 15,7
26.8.15 1022,9 1018,6 1021,4 16,3 65,2 8,7 16,1 2,6 373,6 7,5 24,8 21,9 0,0
27.8.15 1018,6 1015,0 1017,0 20,6 56,5 11,0 20,2 4,4 373,6 11,1 28,3 23,4 0,0
28.8.15 1024,7 1014,8 1019,8 20,2 76,9 15,7 20,0 2,7 375,3 17,5 23,6 27,7 1,7
29.8.15 1027,2 1024,5 1026,0 22,0 74,9 16,6 22,0 1,0 375,3 14,9 31,3 19,0 0,0
30.8.15 1025,8 1022,2 1023,5 24,7 65,6 16,7 24,6 1,1 375,3 14,9 35,3 17,2 0,0
31.8.15 1022,5 1015,9 1018,7 25,1 63,5 16,6 25,1 1,7 376,4 16,4 35,4 25,2 1,1
1.9.15 1018,2 1013,1 1014,5 21,3 72,3 15,4 21,1 3,2 378,9 14,6 31,3 43,5 2,5
2.9.15 1020,7 1017,0 1019,4 16,2 69,4 10,1 16,2 0,8 378,9 10,8 23,6 16,9 0,0
3.9.15 1018,9 1016,0 1017,2 13,5 83,6 10,7 13,5 0,8 380,6 10,9 17,8 20,1 1,7
4.9.15 1018,3 1016,3 1017,2 13,4 70,0 7,4 12,9 3,2 380,6 8,1 19,5 29,5 0,0
5.9.15 1017,6 1015,4 1016,6 9,9 78,9 6,3 9,5 2,7 381,9 4,3 17,0 30,6 1,3
6.9.15 1023,9 1016,8 1019,9 9,5 82,2 6,6 8,1 6,5 385,5 6,8 11,4 38,8 3,6
7.9.15 1026,3 1022,3 1023,8 10,1 88,5 8,2 9,7 3,2 389,2 7,9 14,5 27,3 3,7
8.9.15 1026,7 1024,1 1025,7 11,0 76,9 6,6 11,0 0,2 389,2 3,6 19,6 9,7 0,0
9.9.15 1025,5 1023,2 1024,5 12,0 73,4 6,9 11,8 1,8 389,5 7,5 18,6 26,2 0,3
10.9.15 1025,5 1022,2 1024,1 9,3 78,7 5,5 9,1 1,1 389,5 2,0 16,9 21,2 0,0
11.9.15 1022,5 1020,0 1021,0 10,2 79,2 6,4 9,6 3,0 389,5 2,8 17,6 24,4 0,0
12.9.15 1020,7 1018,3 1019,6 15,4 74,8 10,5 15,1 3,7 389,5 9,6 23,1 23,4 0,0
13.9.15 1018,5 1011,1 1015,6 18,6 68,1 12,3 18,1 4,7 389,5 13,4 24,1 29,1 0,0
14.9.15 1012,3 1007,4 1009,6 15,0 81,3 11,8 14,8 2,4 394,3 10,5 18,3 42,1 4,8
15.9.15 1013,5 1011,5 1012,7 13,9 76,1 9,5 13,4 4,4 394,3 9,5 18,3 28,8 0,0
16.9.15 1011,6 1003,3 1006,9 16,4 71,1 10,9 16,2 2,8 394,3 9,2 23,2 22,6 0,0
17.9.15 1014,4 1003,4 1007,4 17,3 72,8 11,9 16,8 3,7 397,3 11,6 28,6 38,1 3,0
18.9.15 1022,3 1014,5 1019,0 13,8 78,0 9,9 13,8 1,2 397,3 10,9 17,9 20,8 0,0
19.9.15 1023,9 1022,2 1023,1 12,9 76,9 8,6 12,7 2,2 397,3 5,8 20,9 24,1 0,0
20.9.15 1024,8 1022,9 1023,8 11,1 81,6 8,0 10,9 1,5 399,6 7,9 16,0 23,0 2,3
21.9.15 1023,4 1015,3 1019,6 12,9 73,6 7,7 12,7 1,9 399,6 8,6 20,4 22,3 0,0
22.9.15 1015,1 1006,0 1010,1 12,0 76,3 7,8 11,8 2,7 401,3 8,1 16,5 20,8 1,7
23.9.15 1018,0 1006,5 1011,4 10,7 84,0 8,0 10,5 1,9 401,7 7,9 13,8 34,2 0,4
24.9.15 1023,1 1017,9 1021,0 11,2 79,2 7,4 11,1 1,3 401,7 6,1 18,1 22,6 0,0
25.9.15 1024,6 1022,3 1023,1 10,7 78,6 6,9 10,7 0,8 401,7 3,3 19,0 20,8 0,0
26.9.15 1028,8 1024,4 1026,1 11,5 83,8 8,8 11,4 0,8 401,7 9,9 15,7 21,2 0,0
27.9.15 1034,3 1028,8 1031,3 10,6 73,7 5,7 10,4 1,9 401,7 5,3 19,2 22,6 0,0
28.9.15 1036,6 1034,4 1035,6 10,0 70,9 4,3 9,6 2,3 401,7 3,6 18,8 27,3 0,0
29.9.15 1036,5 1035,0 1035,8 8,4 72,3 3,2 8,1 1,8 401,7 0,3 17,4 16,5 0,0
30.9.15 1036,0 1033,2 1034,7 7,9 67,2 1,6 7,0 4,4 401,7 -0,4 14,9 45,5 0,0
1.10.15 1033,8 1030,4 1031,7 8,2 63,8 1,2 7,6 3,3 401,7 1,0 16,9 31,5 0,0
2.10.15 1030,6 1022,1 1027,0 9,2 65,6 2,3 8,8 2,6 401,7 -0,4 19,9 28,8 0,0
3.10.15 1022,0 1017,4 1019,3 13,3 68,8 7,3 13,1 1,9 401,7 6,1 20,9 24,1 0,0
4.10.15 1020,2 1017,6 1019,0 9,9 84,9 7,4 9,8 0,6 401,8 4,3 16,6 19,0 0,1
5.10.15 1020,3 1015,0 1018,6 10,6 84,7 8,0 10,6 0,7 401,9 5,2 19,0 20,8 0,1
6.10.15 1015,0 1010,0 1011,9 12,2 87,8 10,2 11,8 3,3 403,0 9,4 16,2 24,1 1,1
7.10.15 1018,3 1011,2 1014,1 14,0 90,7 12,4 13,9 0,9 407,9 12,4 17,1 21,6 4,9
8.10.15 1022,5 1018,2 1020,2 12,4 89,9 10,7 12,1 2,1 412,4 11,3 15,8 25,5 4,5
9.10.15 1022,6 1020,8 1021,6 11,9 91,5 10,5 11,9 0,3 414,2 9,8 15,3 11,1 1,8
10.10.15 1021,9 1019,2 1020,5 7,6 93,0 6,5 7,5 1,4 414,2 6,4 9,8 18,0 0,0
11.10.15 1020,6 1018,0 1019,2 5,2 78,3 1,4 5,1 1,0 414,2 -0,3 14,6 26,2 0,0
12.10.15 1020,8 1018,8 1019,9 3,2 74,1 -1,5 3,1 0,4 414,3 -4,6 17,8 19,0 0,1
13.10.15 1019,0 1016,9 1017,9 1,8 85,0 -0,5 1,3 2,8 414,3 -0,7 8,0 24,1 0,0
14.10.15 1018,8 1015,7 1017,3 1,6 90,6 0,2 1,6 0,1 427,8 0,4 3,8 8,2 13,5
15.10.15 1018,8 1013,6 1015,3 1,9 94,0 1,0 1,9 0,3 445,3 0,1 3,8 14,4 17,5
16.10.15 1018,8 1015,8 1017,4 4,3 94,6 3,5 4,3 0,8 448,2 3,6 5,3 16,5 2,9
17.10.15 1020,0 1018,1 1019,2 5,0 92,7 3,9 5,0 0,4 449,6 4,2 6,6 13,6 1,4
18.10.15 1020,2 1018,7 1019,5 5,3 90,5 3,9 5,3 0,1 449,6 3,6 7,1 7,9 0,0
19.10.15 1022,2 1019,8 1020,9 6,0 87,8 4,1 6,0 0,1 449,6 2,3 14,3 7,5 0,0
20.10.15 1022,7 1020,8 1021,5 4,1 93,6 3,1 4,0 0,4 451,3 -1,1 7,5 8,2 1,7
21.10.15 1022,8 1020,4 1021,6 6,8 90,7 5,3 6,7 1,4 452,3 5,3 8,3 19,8 1,0
22.10.15 1020,5 1017,2 1018,5 6,9 88,2 4,9 6,4 2,5 452,4 2,9 11,1 36,0 0,1
23.10.15 1026,0 1020,3 1024,2 8,7 83,4 5,8 8,6 1,4 454,7 2,7 16,2 20,5 2,3
24.10.15 1025,7 1019,7 1022,4 5,5 84,1 2,8 5,1 2,9 454,7 -0,5 15,8 25,5 0,0
25.10.15 1028,3 1020,4 1024,3 7,2 90,0 5,6 7,2 0,4 454,7 3,8 11,9 14,7 0,0
26.10.15 1028,1 1022,3 1024,6 8,8 87,0 6,7 8,4 2,7 454,7 6,5 12,4 25,2 0,0
27.10.15 1022,3 1018,8 1020,7 8,0 86,3 5,8 6,7 5,9 454,7 6,4 9,8 29,5 0,0
28.10.15 1018,8 1014,1 1015,9 6,5 88,7 4,7 5,5 5,0 454,7 5,3 8,8 25,9 0,0
29.10.15 1025,1 1014,9 1019,6 6,5 91,5 5,2 6,4 0,8 454,7 3,7 8,9 13,3 0,0
30.10.15 1030,8 1025,1 1028,4 8,9 82,1 5,8 8,6 2,3 454,7 5,9 16,8 19,7 0,0
31.10.15 1032,2 1030,0 1030,8 9,5 73,4 4,6 8,3 5,4 454,7 5,3 18,3 30,9 0,0
1.11.15 1034,0 1032,0 1032,8 8,2 74,7 3,8 7,4 3,9 454,7 1,8 17,6 30,6 0,0
2.11.15 1032,7 1028,1 1030,2 5,7 71,1 0,4 5,4 1,8 454,7 -0,4 15,8 22,6 0,0
3.11.15 1028,0 1021,8 1024,3 5,5 72,7 0,7 5,1 2,2 454,7 -1,6 16,4 24,2 0,0
4.11.15 1024,1 1021,9 1023,3 6,7 80,7 3,4 6,7 0,2 454,7 -0,6 18,1 15,8 0,0
5.11.15 1024,9 1023,4 1024,1 9,4 81,4 6,1 9,4 0,1 454,7 3,9 20,2 9,7 0,0
6.11.15 1026,0 1024,1 1024,9 10,0 83,7 7,2 9,9 0,9 454,7 3,2 19,6 17,2 0,0
7.11.15 1027,8 1024,6 1026,6 13,5 92,4 12,2 13,4 1,6 458,9 11,9 15,3 27,0 4,2
8.11.15 1032,5 1026,1 1029,2 13,7 82,6 10,5 13,5 1,6 458,9 7,1 19,6 18,3 0,0
9.11.15 1026,0 1022,4 1024,2 12,7 87,3 10,6 11,6 5,8 459,4 9,6 14,4 41,7 0,5
10.11.15 1025,5 1023,2 1024,5 12,1 77,0 8,1 10,1 8,9 459,4 10,9 15,6 47,1 0,0
11.11.15 1027,0 1024,7 1025,8 11,0 89,4 9,3 10,5 3,5 459,4 8,6 12,1 28,4 0,0
12.11.15 1029,0 1025,5 1027,5 8,9 86,6 6,7 8,4 2,7 459,4 7,0 13,3 32,4 0,0
13.11.15 1027,4 1022,2 1025,0 8,8 86,3 6,6 8,2 3,6 461,4 6,2 11,1 41,7 2,0
14.11.15 1027,3 1022,2 1025,5 5,7 82,1 2,9 4,2 6,5 461,7 3,5 7,8 50,0 0,3
15.11.15 1022,1 1012,4 1015,3 7,5 91,7 6,2 6,0 6,8 470,4 4,8 9,9 48,6 8,7
16.11.15 1018,1 1015,9 1017,1 9,9 77,9 5,9 8,8 5,3 470,4 6,9 14,4 36,2 0,0
17.11.15 1018,0 1011,9 1014,7 9,2 92,4 8,0 8,5 4,3 476,6 6,8 11,3 36,0 6,2
18.11.15 1019,2 1008,9 1014,7 11,0 76,3 6,9 8,1 14,2 477,5 8,4 12,4 69,8 0,9
19.11.15 1017,0 1008,3 1014,8 9,6 85,8 7,3 7,8 9,2 506,7 8,1 11,4 52,9 29,2
20.11.15 1011,0 1000,3 1006,8 5,8 92,5 4,7 5,3 3,2 510,8 2,8 9,9 20,8 4,1
21.11.15 1000,6 997,4 998,7 1,5 90,1 0,0 1,3 2,1 511,8 -1,1 3,9 24,1 1,0
22.11.15 1010,8 998,8 1003,9 0,1 88,4 -1,6 -0,4 2,4 512,6 -1,4 4,3 30,6 0,8
23.11.15 1025,4 1010,5 1018,5 -0,7 87,3 -2,5 -1,2 3,1 512,6 -1,9 2,9 25,2 0,0
24.11.15 1025,4 1014,9 1021,9 -0,6 84,5 -2,9 -1,4 3,8 513,4 -4,4 3,3 13,6 0,8
25.11.15 1014,7 1006,8 1008,9 0,4 88,0 -1,4 -0,0 2,7 514,1 -1,2 1,9 24,1 0,7
26.11.15 1021,3 1007,9 1014,0 1,3 92,0 0,2 1,3 0,3 515,5 -0,7 3,2 12,2 1,4
27.11.15 1021,7 1014,5 1019,3 0,1 89,7 -1,4 0,1 0,5 515,5 -3,3 4,9 9,3 0,0
28.11.15 1018,4 1010,4 1013,7 -0,6 90,6 -1,9 -1,6 4,3 515,5 -3,6 1,3 27,3 0,0
29.11.15 1018,4 1012,7 1015,0 2,7 91,7 1,4 1,7 5,0 525,8 0,8 6,6 35,6 10,3
30.11.15 1019,7 1012,3 1015,8 6,1 91,4 4,8 2,6 12,2 546,2 4,4 7,1 57,2 20,4
1.12.15 1026,2 1013,9 1021,0 7,0 94,1 6,1 5,6 5,9 566,4 5,9 7,9 43,2 20,2
2.12.15 1030,2 1026,0 1028,5 7,6 90,8 6,2 7,0 3,4 567,0 6,3 8,8 34,9 0,6
3.12.15 1032,0 1028,2 1030,3 5,5 85,3 3,1 5,3 1,5 567,0 3,4 6,7 22,1 0,0
4.12.15 1034,0 1025,9 1029,1 4,2 88,3 2,4 3,4 4,4 567,3 2,1 6,6 32,0 0,3
5.12.15 1033,9 1028,8 1031,5 4,8 88,5 3,0 4,4 3,2 567,3 1,3 6,6 30,6 0,0
6.12.15 1031,0 1026,7 1028,3 6,5 84,2 3,9 5,9 3,4 567,3 2,5 9,8 31,6 0,0
7.12.15 1034,9 1030,7 1033,3 7,2 85,2 4,7 7,1 0,8 567,3 1,3 13,9 20,1 0,0
8.12.15 1035,0 1031,0 1032,9 3,9 88,9 2,1 3,8 2,5 567,3 0,2 11,6 17,6 0,0
9.12.15 1039,0 1030,6 1034,1 2,4 94,3 1,6 2,2 1,9 573,9 0,3 4,2 18,0 6,6
10.12.15 1038,8 1031,1 1035,7 1,0 93,0 0,0 0,7 2,6 573,9 -0,9 3,6 18,7 0,0
11.12.15 1031,2 1023,3 1026,8 1,5 88,3 -0,3 0,7 3,5 575,4 -1,0 4,1 29,5 1,5
12.12.15 1024,7 1020,7 1023,0 4,6 90,7 3,2 4,1 3,2 580,4 3,8 5,6 27,7 5,0
13.12.15 1024,9 1016,1 1020,0 5,1 91,4 3,8 3,9 5,0 581,8 2,3 6,7 33,4 1,4
14.12.15 1024,6 1023,5 1024,0 2,8 94,0 1,9 2,6 2,4 581,8 1,9 4,9 16,9 0,0
15.12.15 1028,0 1023,1 1025,0 4,9 90,9 3,5 4,7 1,7 581,8 3,3 6,4 33,4 0,0
16.12.15 1028,7 1027,2 1027,8 4,9 92,1 3,6 4,6 2,6 582,1 2,6 6,7 16,2 0,3
17.12.15 1027,4 1024,9 1026,2 8,9 95,1 8,1 8,8 1,4 584,3 5,9 10,2 18,0 2,2
18.12.15 1026,3 1022,7 1024,6 9,0 94,5 8,1 8,7 2,1 586,2 7,4 10,5 26,2 1,9
19.12.15 1026,2 1024,5 1025,2 7,8 92,9 6,7 7,7 1,3 586,2 4,7 11,1 19,0 0,0
20.12.15 1025,0 1022,5 1023,5 5,8 92,1 4,6 5,1 3,9 586,4 3,6 10,8 23,0 0,2
21.12.15 1025,6 1023,2 1024,5 5,5 92,5 4,3 4,9 3,9 589,4 3,5 7,3 37,4 3,0
22.12.15 1028,3 1025,0 1026,7 8,1 84,6 5,5 7,3 5,0 589,4 6,6 9,9 32,4 0,0
23.12.15 1030,7 1024,3 1027,3 7,2 81,8 4,1 6,8 3,3 589,4 2,5 9,4 29,1 0,0
24.12.15 1030,5 1025,2 1027,4 6,7 88,4 4,9 6,0 4,4 589,4 2,4 10,4 20,1 0,0
25.12.15 1030,5 1025,8 1028,9 9,3 83,9 6,6 8,8 3,6 589,4 6,3 10,9 27,3 0,0
26.12.15 1030,2 1028,9 1029,5 9,5 79,6 6,0 9,2 2,6 589,4 3,8 13,9 27,7 0,0
27.12.15 1032,1 1028,5 1029,8 6,5 84,7 4,0 6,3 1,8 589,4 2,9 11,3 29,1 0,0
28.12.15 1032,5 1029,9 1031,3 4,2 85,1 1,7 4,3 0,1 589,4 -0,7 13,6 13,6 0,0
29.12.15 1032,2 1027,6 1029,3 5,7 88,8 4,0 4,3 6,5 589,4 3,0 6,9 32,4 0,0
30.12.15 1032,4 1025,4 1030,3 1,7 81,9 -1,0 -0,3 6,8 589,4 -1,8 4,1 33,8 0,0
31.12.15 1026,6 1023,5 1025,1 -2,8 76,5 -6,3 -5,5 7,7 589,4 -4,9 -1,1 35,6 0,0